sensor_id;sensor_type;location;lat;lon;timestamp;P1;durP1;ratioP1;P2;durP2;ratioP2
78854;SDS011;68206;59.956;30.234;2023-03-04T00:01:29;11.18;;;5.25;;
78854;SDS011;68206;59.956;30.234;2023-03-04T00:03:58;9.77;;;4.05;;
78854;SDS011;68206;59.956;30.234;2023-03-04T00:06:27;9.32;;;3.55;;
78854;SDS011;68206;59.956;30.234;2023-03-04T00:08:57;9.13;;;3.42;;
78854;SDS011;68206;59.956;30.234;2023-03-04T00:11:27;8.98;;;4.05;;
78854;SDS011;68206;59.956;30.234;2023-03-04T00:13:56;9.50;;;3.63;;
78854;SDS011;68206;59.956;30.234;2023-03-04T00:16:25;8.43;;;3.75;;
78854;SDS011;68206;59.956;30.234;2023-03-04T00:18:55;15.48;;;5.43;;
78854;SDS011;68206;59.956;30.234;2023-03-04T00:21:24;10.23;;;5.50;;
78854;SDS011;68206;59.956;30.234;2023-03-04T00:23:53;8.23;;;4.22;;
78854;SDS011;68206;59.956;30.234;2023-03-04T00:26:22;14.55;;;5.30;;
78854;SDS011;68206;59.956;30.234;2023-03-04T00:28:52;8.32;;;4.32;;
78854;SDS011;68206;59.956;30.234;2023-03-04T00:31:21;12.85;;;5.13;;
78854;SDS011;68206;59.956;30.234;2023-03-04T00:33:51;12.77;;;5.65;;
78854;SDS011;68206;59.956;30.234;2023-03-04T00:36:20;18.23;;;6.68;;
78854;SDS011;68206;59.956;30.234;2023-03-04T00:38:49;10.95;;;5.13;;
78854;SDS011;68206;59.956;30.234;2023-03-04T00:41:17;13.02;;;5.03;;
78854;SDS011;68206;59.956;30.234;2023-03-04T00:43:46;14.77;;;5.32;;
78854;SDS011;68206;59.956;30.234;2023-03-04T00:46:17;13.02;;;5.63;;
78854;SDS011;68206;59.956;30.234;2023-03-04T00:48:46;7.22;;;4.03;;
78854;SDS011;68206;59.956;30.234;2023-03-04T00:51:15;12.25;;;5.82;;
78854;SDS011;68206;59.956;30.234;2023-03-04T00:53:44;12.25;;;5.45;;
78854;SDS011;68206;59.956;30.234;2023-03-04T00:56:13;8.43;;;4.30;;
78854;SDS011;68206;59.956;30.234;2023-03-04T00:58:42;11.57;;;4.20;;
78854;SDS011;68206;59.956;30.234;2023-03-04T01:01:11;10.00;;;4.22;;
78854;SDS011;68206;59.956;30.234;2023-03-04T01:03:42;13.43;;;5.05;;
78854;SDS011;68206;59.956;30.234;2023-03-04T01:06:10;8.55;;;4.10;;
78854;SDS011;68206;59.956;30.234;2023-03-04T01:08:39;11.82;;;3.95;;
78854;SDS011;68206;59.956;30.234;2023-03-04T01:11:08;11.68;;;5.00;;
78854;SDS011;68206;59.956;30.234;2023-03-04T01:13:37;10.25;;;4.43;;
78854;SDS011;68206;59.956;30.234;2023-03-04T01:16:06;8.45;;;4.35;;
78854;SDS011;68206;59.956;30.234;2023-03-04T01:18:37;6.85;;;3.50;;
78854;SDS011;68206;59.956;30.234;2023-03-04T01:21:07;6.03;;;3.55;;
78854;SDS011;68206;59.956;30.234;2023-03-04T01:23:36;8.95;;;4.45;;
78854;SDS011;68206;59.956;30.234;2023-03-04T01:26:05;7.18;;;3.92;;
78854;SDS011;68206;59.956;30.234;2023-03-04T01:28:33;7.97;;;3.72;;
78854;SDS011;68206;59.956;30.234;2023-03-04T01:31:05;8.82;;;3.35;;
78854;SDS011;68206;59.956;30.234;2023-03-04T01:33:34;8.18;;;3.10;;
78854;SDS011;68206;59.956;30.234;2023-03-04T01:36:03;5.40;;;3.00;;
78854;SDS011;68206;59.956;30.234;2023-03-04T01:38:33;8.32;;;3.75;;
78854;SDS011;68206;59.956;30.234;2023-03-04T01:41:02;7.68;;;3.75;;
78854;SDS011;68206;59.956;30.234;2023-03-04T01:43:32;6.50;;;3.80;;
78854;SDS011;68206;59.956;30.234;2023-03-04T01:46:04;7.28;;;3.50;;
78854;SDS011;68206;59.956;30.234;2023-03-04T01:48:35;8.13;;;3.20;;
78854;SDS011;68206;59.956;30.234;2023-03-04T01:51:06;8.40;;;2.45;;
78854;SDS011;68206;59.956;30.234;2023-03-04T01:53:43;6.63;;;3.67;;
78854;SDS011;68206;59.956;30.234;2023-03-04T01:56:14;4.63;;;2.70;;
78854;SDS011;68206;59.956;30.234;2023-03-04T01:58:46;6.00;;;3.20;;
78854;SDS011;68206;59.956;30.234;2023-03-04T02:01:34;5.13;;;2.50;;
78854;SDS011;68206;59.956;30.234;2023-03-04T02:04:04;3.80;;;2.30;;
78854;SDS011;68206;59.956;30.234;2023-03-04T02:06:35;4.57;;;2.42;;
78854;SDS011;68206;59.956;30.234;2023-03-04T02:09:07;6.90;;;2.92;;
78854;SDS011;68206;59.956;30.234;2023-03-04T02:11:37;3.92;;;2.22;;
78854;SDS011;68206;59.956;30.234;2023-03-04T02:14:08;6.13;;;3.88;;
78854;SDS011;68206;59.956;30.234;2023-03-04T02:16:38;4.63;;;2.42;;
78854;SDS011;68206;59.956;30.234;2023-03-04T02:19:10;4.78;;;3.13;;
78854;SDS011;68206;59.956;30.234;2023-03-04T02:21:43;4.80;;;2.83;;
78854;SDS011;68206;59.956;30.234;2023-03-04T02:24:14;6.68;;;2.85;;
78854;SDS011;68206;59.956;30.234;2023-03-04T02:26:48;3.53;;;2.20;;
78854;SDS011;68206;59.956;30.234;2023-03-04T02:29:17;6.68;;;3.05;;
78854;SDS011;68206;59.956;30.234;2023-03-04T02:31:47;6.15;;;2.60;;
78854;SDS011;68206;59.956;30.234;2023-03-04T02:34:18;4.95;;;2.35;;
78854;SDS011;68206;59.956;30.234;2023-03-04T02:36:50;3.28;;;1.90;;
78854;SDS011;68206;59.956;30.234;2023-03-04T02:39:21;5.10;;;2.67;;
78854;SDS011;68206;59.956;30.234;2023-03-04T02:41:57;4.63;;;2.00;;
78854;SDS011;68206;59.956;30.234;2023-03-04T02:44:28;4.78;;;2.45;;
78854;SDS011;68206;59.956;30.234;2023-03-04T02:47:02;4.35;;;1.80;;
78854;SDS011;68206;59.956;30.234;2023-03-04T02:49:32;3.90;;;2.53;;
78854;SDS011;68206;59.956;30.234;2023-03-04T02:52:02;5.30;;;2.10;;
78854;SDS011;68206;59.956;30.234;2023-03-04T02:54:32;3.20;;;2.03;;
78854;SDS011;68206;59.956;30.234;2023-03-04T02:57:04;8.10;;;2.78;;
78854;SDS011;68206;59.956;30.234;2023-03-04T02:59:38;4.70;;;2.42;;
78854;SDS011;68206;59.956;30.234;2023-03-04T03:04:40;5.72;;;2.50;;
78854;SDS011;68206;59.956;30.234;2023-03-04T03:07:12;6.90;;;2.40;;
78854;SDS011;68206;59.956;30.234;2023-03-04T03:09:41;9.05;;;2.95;;
78854;SDS011;68206;59.956;30.234;2023-03-04T03:12:11;6.22;;;2.50;;
78854;SDS011;68206;59.956;30.234;2023-03-04T03:14:40;5.72;;;2.85;;
78854;SDS011;68206;59.956;30.234;2023-03-04T03:17:11;6.70;;;3.58;;
78854;SDS011;68206;59.956;30.234;2023-03-04T03:19:40;9.88;;;4.65;;
78854;SDS011;68206;59.956;30.234;2023-03-04T03:22:09;6.97;;;3.45;;
78854;SDS011;68206;59.956;30.234;2023-03-04T03:24:38;7.13;;;3.92;;
78854;SDS011;68206;59.956;30.234;2023-03-04T03:27:07;7.78;;;3.90;;
78854;SDS011;68206;59.956;30.234;2023-03-04T03:29:37;8.98;;;3.95;;
78854;SDS011;68206;59.956;30.234;2023-03-04T03:32:07;8.75;;;3.20;;
78854;SDS011;68206;59.956;30.234;2023-03-04T03:34:36;5.78;;;3.20;;
78854;SDS011;68206;59.956;30.234;2023-03-04T03:37:05;6.05;;;3.13;;
78854;SDS011;68206;59.956;30.234;2023-03-04T03:39:34;11.32;;;4.43;;
78854;SDS011;68206;59.956;30.234;2023-03-04T03:42:03;11.48;;;4.72;;
78854;SDS011;68206;59.956;30.234;2023-03-04T03:44:32;12.77;;;4.50;;
78854;SDS011;68206;59.956;30.234;2023-03-04T03:47:02;10.45;;;3.92;;
78854;SDS011;68206;59.956;30.234;2023-03-04T03:49:31;9.68;;;5.07;;
78854;SDS011;68206;59.956;30.234;2023-03-04T03:52:00;11.07;;;5.07;;
78854;SDS011;68206;59.956;30.234;2023-03-04T03:54:29;6.68;;;3.63;;
78854;SDS011;68206;59.956;30.234;2023-03-04T03:56:58;6.38;;;2.70;;
78854;SDS011;68206;59.956;30.234;2023-03-04T03:59:27;6.88;;;3.83;;
78854;SDS011;68206;59.956;30.234;2023-03-04T04:01:55;8.20;;;3.72;;
78854;SDS011;68206;59.956;30.234;2023-03-04T04:04:26;8.02;;;3.28;;
78854;SDS011;68206;59.956;30.234;2023-03-04T04:06:54;10.20;;;3.83;;
78854;SDS011;68206;59.956;30.234;2023-03-04T04:09:23;7.65;;;4.00;;
78854;SDS011;68206;59.956;30.234;2023-03-04T04:11:52;5.85;;;3.15;;
78854;SDS011;68206;59.956;30.234;2023-03-04T04:14:21;6.82;;;2.90;;
78854;SDS011;68206;59.956;30.234;2023-03-04T04:16:50;6.82;;;3.83;;
78854;SDS011;68206;59.956;30.234;2023-03-04T04:19:19;10.10;;;4.38;;
78854;SDS011;68206;59.956;30.234;2023-03-04T04:21:50;7.03;;;3.92;;
78854;SDS011;68206;59.956;30.234;2023-03-04T04:24:19;5.50;;;2.97;;
78854;SDS011;68206;59.956;30.234;2023-03-04T04:26:48;6.53;;;4.13;;
78854;SDS011;68206;59.956;30.234;2023-03-04T04:29:16;5.47;;;3.55;;
78854;SDS011;68206;59.956;30.234;2023-03-04T04:31:46;8.98;;;4.15;;
78854;SDS011;68206;59.956;30.234;2023-03-04T04:34:15;8.98;;;4.45;;
78854;SDS011;68206;59.956;30.234;2023-03-04T04:36:44;6.22;;;3.83;;
78854;SDS011;68206;59.956;30.234;2023-03-04T04:39:14;6.18;;;3.78;;
78854;SDS011;68206;59.956;30.234;2023-03-04T04:41:45;4.18;;;3.17;;
78854;SDS011;68206;59.956;30.234;2023-03-04T04:44:14;5.20;;;2.92;;
78854;SDS011;68206;59.956;30.234;2023-03-04T04:46:43;5.93;;;2.67;;
78854;SDS011;68206;59.956;30.234;2023-03-04T04:49:12;6.18;;;2.75;;
78854;SDS011;68206;59.956;30.234;2023-03-04T04:51:41;4.82;;;2.50;;
78854;SDS011;68206;59.956;30.234;2023-03-04T04:54:10;3.90;;;2.55;;
78854;SDS011;68206;59.956;30.234;2023-03-04T04:56:42;8.25;;;3.45;;
78854;SDS011;68206;59.956;30.234;2023-03-04T04:59:11;4.68;;;2.60;;
78854;SDS011;68206;59.956;30.234;2023-03-04T05:01:40;4.20;;;2.75;;
78854;SDS011;68206;59.956;30.234;2023-03-04T05:04:09;6.47;;;3.03;;
78854;SDS011;68206;59.956;30.234;2023-03-04T05:06:38;9.15;;;3.40;;
78854;SDS011;68206;59.956;30.234;2023-03-04T05:09:06;5.28;;;2.42;;
78854;SDS011;68206;59.956;30.234;2023-03-04T05:11:35;3.08;;;2.05;;
78854;SDS011;68206;59.956;30.234;2023-03-04T05:14:05;3.72;;;2.10;;
78854;SDS011;68206;59.956;30.234;2023-03-04T05:16:34;4.53;;;2.58;;
78854;SDS011;68206;59.956;30.234;2023-03-04T05:19:03;2.90;;;2.20;;
78854;SDS011;68206;59.956;30.234;2023-03-04T05:21:32;4.30;;;2.45;;
78854;SDS011;68206;59.956;30.234;2023-03-04T05:24:00;8.90;;;2.83;;
78854;SDS011;68206;59.956;30.234;2023-03-04T05:26:29;4.28;;;1.90;;
78854;SDS011;68206;59.956;30.234;2023-03-04T05:28:58;4.50;;;2.75;;
78854;SDS011;68206;59.956;30.234;2023-03-04T05:31:28;3.22;;;2.20;;
78854;SDS011;68206;59.956;30.234;2023-03-04T05:33:57;4.90;;;2.28;;
78854;SDS011;68206;59.956;30.234;2023-03-04T05:36:26;5.07;;;2.65;;
78854;SDS011;68206;59.956;30.234;2023-03-04T05:38:55;4.68;;;3.03;;
78854;SDS011;68206;59.956;30.234;2023-03-04T05:41:24;5.63;;;3.35;;
78854;SDS011;68206;59.956;30.234;2023-03-04T05:43:53;5.70;;;3.28;;
78854;SDS011;68206;59.956;30.234;2023-03-04T05:46:22;5.40;;;3.70;;
78854;SDS011;68206;59.956;30.234;2023-03-04T05:48:53;6.35;;;3.65;;
78854;SDS011;68206;59.956;30.234;2023-03-04T05:51:22;5.50;;;3.60;;
78854;SDS011;68206;59.956;30.234;2023-03-04T05:53:51;7.28;;;4.22;;
78854;SDS011;68206;59.956;30.234;2023-03-04T05:56:19;7.28;;;4.50;;
78854;SDS011;68206;59.956;30.234;2023-03-04T05:58:48;6.93;;;3.70;;
78854;SDS011;68206;59.956;30.234;2023-03-04T06:01:17;5.82;;;3.88;;
78854;SDS011;68206;59.956;30.234;2023-03-04T06:03:46;5.85;;;3.40;;
78854;SDS011;68206;59.956;30.234;2023-03-04T06:06:17;6.38;;;3.58;;
78854;SDS011;68206;59.956;30.234;2023-03-04T06:08:45;10.05;;;4.78;;
78854;SDS011;68206;59.956;30.234;2023-03-04T06:11:14;5.85;;;3.50;;
78854;SDS011;68206;59.956;30.234;2023-03-04T06:13:43;12.20;;;4.18;;
78854;SDS011;68206;59.956;30.234;2023-03-04T06:16:12;7.85;;;4.28;;
78854;SDS011;68206;59.956;30.234;2023-03-04T06:18:41;5.45;;;3.33;;
78854;SDS011;68206;59.956;30.234;2023-03-04T06:21:10;5.78;;;3.40;;
78854;SDS011;68206;59.956;30.234;2023-03-04T06:23:41;8.65;;;3.95;;
78854;SDS011;68206;59.956;30.234;2023-03-04T06:26:11;5.72;;;2.63;;
78854;SDS011;68206;59.956;30.234;2023-03-04T06:28:42;6.80;;;3.50;;
78854;SDS011;68206;59.956;30.234;2023-03-04T06:31:11;8.35;;;3.25;;
78854;SDS011;68206;59.956;30.234;2023-03-04T06:33:41;6.53;;;3.10;;
78854;SDS011;68206;59.956;30.234;2023-03-04T06:36:10;7.78;;;3.97;;
78854;SDS011;68206;59.956;30.234;2023-03-04T06:38:38;6.60;;;3.45;;
78854;SDS011;68206;59.956;30.234;2023-03-04T06:41:09;10.20;;;4.07;;
78854;SDS011;68206;59.956;30.234;2023-03-04T06:43:39;6.85;;;3.20;;
78854;SDS011;68206;59.956;30.234;2023-03-04T06:46:08;7.15;;;3.42;;
78854;SDS011;68206;59.956;30.234;2023-03-04T06:48:38;8.70;;;4.10;;
78854;SDS011;68206;59.956;30.234;2023-03-04T06:51:08;5.72;;;2.83;;
78854;SDS011;68206;59.956;30.234;2023-03-04T06:53:38;8.18;;;3.75;;
78854;SDS011;68206;59.956;30.234;2023-03-04T06:56:10;4.40;;;2.90;;
78854;SDS011;68206;59.956;30.234;2023-03-04T06:58:42;7.32;;;3.47;;
78854;SDS011;68206;59.956;30.234;2023-03-04T07:01:11;7.75;;;3.65;;
78854;SDS011;68206;59.956;30.234;2023-03-04T07:03:42;6.15;;;3.50;;
78854;SDS011;68206;59.956;30.234;2023-03-04T07:06:13;6.65;;;2.80;;
78854;SDS011;68206;59.956;30.234;2023-03-04T07:08:44;7.25;;;3.40;;
78854;SDS011;68206;59.956;30.234;2023-03-04T07:11:14;7.70;;;3.30;;
78854;SDS011;68206;59.956;30.234;2023-03-04T07:13:44;7.22;;;3.67;;
78854;SDS011;68206;59.956;30.234;2023-03-04T07:16:13;8.50;;;4.40;;
78854;SDS011;68206;59.956;30.234;2023-03-04T07:18:45;10.38;;;3.83;;
78854;SDS011;68206;59.956;30.234;2023-03-04T07:21:15;9.43;;;4.13;;
78854;SDS011;68206;59.956;30.234;2023-03-04T07:23:45;6.05;;;3.00;;
78854;SDS011;68206;59.956;30.234;2023-03-04T07:26:15;7.85;;;3.33;;
78854;SDS011;68206;59.956;30.234;2023-03-04T07:28:44;11.32;;;4.05;;
78854;SDS011;68206;59.956;30.234;2023-03-04T07:31:17;8.48;;;3.42;;
78854;SDS011;68206;59.956;30.234;2023-03-04T07:33:50;9.60;;;3.90;;
78854;SDS011;68206;59.956;30.234;2023-03-04T07:36:19;11.23;;;4.68;;
78854;SDS011;68206;59.956;30.234;2023-03-04T07:38:48;9.63;;;4.13;;
78854;SDS011;68206;59.956;30.234;2023-03-04T07:41:19;8.18;;;3.80;;
78854;SDS011;68206;59.956;30.234;2023-03-04T07:43:49;7.25;;;4.32;;
78854;SDS011;68206;59.956;30.234;2023-03-04T07:46:19;7.32;;;3.58;;
78854;SDS011;68206;59.956;30.234;2023-03-04T07:48:48;9.68;;;4.78;;
78854;SDS011;68206;59.956;30.234;2023-03-04T07:51:17;6.70;;;4.10;;
78854;SDS011;68206;59.956;30.234;2023-03-04T07:53:48;6.65;;;3.70;;
78854;SDS011;68206;59.956;30.234;2023-03-04T07:56:20;7.10;;;3.30;;
78854;SDS011;68206;59.956;30.234;2023-03-04T07:58:50;8.10;;;3.47;;
78854;SDS011;68206;59.956;30.234;2023-03-04T08:01:20;10.77;;;4.57;;
78854;SDS011;68206;59.956;30.234;2023-03-04T08:03:50;12.38;;;4.50;;
78854;SDS011;68206;59.956;30.234;2023-03-04T08:06:20;5.72;;;3.42;;
78854;SDS011;68206;59.956;30.234;2023-03-04T08:08:53;6.07;;;3.83;;
78854;SDS011;68206;59.956;30.234;2023-03-04T08:11:25;10.13;;;4.40;;
78854;SDS011;68206;59.956;30.234;2023-03-04T08:13:55;9.05;;;3.90;;
78854;SDS011;68206;59.956;30.234;2023-03-04T08:16:24;7.50;;;4.10;;
78854;SDS011;68206;59.956;30.234;2023-03-04T08:18:54;6.47;;;3.67;;
78854;SDS011;68206;59.956;30.234;2023-03-04T08:21:25;8.15;;;3.60;;
78854;SDS011;68206;59.956;30.234;2023-03-04T08:23:56;10.95;;;4.88;;
78854;SDS011;68206;59.956;30.234;2023-03-04T08:26:28;8.20;;;3.83;;
78854;SDS011;68206;59.956;30.234;2023-03-04T08:28:59;6.50;;;3.75;;
78854;SDS011;68206;59.956;30.234;2023-03-04T08:31:29;5.45;;;3.13;;
78854;SDS011;68206;59.956;30.234;2023-03-04T08:33:58;5.60;;;3.30;;
78854;SDS011;68206;59.956;30.234;2023-03-04T08:36:27;5.40;;;3.25;;
78854;SDS011;68206;59.956;30.234;2023-03-04T08:38:56;8.65;;;3.72;;
78854;SDS011;68206;59.956;30.234;2023-03-04T08:41:26;11.57;;;3.92;;
78854;SDS011;68206;59.956;30.234;2023-03-04T08:43:55;7.90;;;3.22;;
78854;SDS011;68206;59.956;30.234;2023-03-04T08:46:24;9.27;;;3.92;;
78854;SDS011;68206;59.956;30.234;2023-03-04T08:48:53;9.30;;;4.10;;
78854;SDS011;68206;59.956;30.234;2023-03-04T08:51:21;8.18;;;3.53;;
78854;SDS011;68206;59.956;30.234;2023-03-04T08:53:51;5.88;;;2.90;;
78854;SDS011;68206;59.956;30.234;2023-03-04T08:56:20;10.57;;;4.25;;
78854;SDS011;68206;59.956;30.234;2023-03-04T08:58:50;7.50;;;4.32;;
78854;SDS011;68206;59.956;30.234;2023-03-04T09:01:19;10.68;;;4.47;;
78854;SDS011;68206;59.956;30.234;2023-03-04T09:03:48;7.32;;;4.47;;
78854;SDS011;68206;59.956;30.234;2023-03-04T09:06:17;13.65;;;3.70;;
78854;SDS011;68206;59.956;30.234;2023-03-04T09:08:46;9.00;;;4.38;;
78854;SDS011;68206;59.956;30.234;2023-03-04T09:11:15;9.52;;;3.95;;
78854;SDS011;68206;59.956;30.234;2023-03-04T09:13:44;10.38;;;4.60;;
78854;SDS011;68206;59.956;30.234;2023-03-04T09:16:14;11.00;;;4.40;;
78854;SDS011;68206;59.956;30.234;2023-03-04T09:18:43;7.13;;;4.00;;
78854;SDS011;68206;59.956;30.234;2023-03-04T09:21:12;11.57;;;4.95;;
78854;SDS011;68206;59.956;30.234;2023-03-04T09:23:41;10.90;;;4.43;;
78854;SDS011;68206;59.956;30.234;2023-03-04T09:26:14;8.10;;;4.57;;
78854;SDS011;68206;59.956;30.234;2023-03-04T09:28:48;11.45;;;4.50;;
78854;SDS011;68206;59.956;30.234;2023-03-04T09:31:19;9.32;;;3.22;;
78854;SDS011;68206;59.956;30.234;2023-03-04T09:33:49;8.63;;;4.03;;
78854;SDS011;68206;59.956;30.234;2023-03-04T09:36:18;6.65;;;3.92;;
78854;SDS011;68206;59.956;30.234;2023-03-04T09:38:48;15.02;;;4.65;;
78854;SDS011;68206;59.956;30.234;2023-03-04T09:41:17;9.35;;;4.63;;
78854;SDS011;68206;59.956;30.234;2023-03-04T09:43:49;8.93;;;4.53;;
78854;SDS011;68206;59.956;30.234;2023-03-04T09:46:25;10.40;;;4.40;;
78854;SDS011;68206;59.956;30.234;2023-03-04T09:49:00;7.78;;;4.13;;
78854;SDS011;68206;59.956;30.234;2023-03-04T09:51:51;5.35;;;3.58;;
78854;SDS011;68206;59.956;30.234;2023-03-04T09:57:25;7.78;;;3.22;;
78854;SDS011;68206;59.956;30.234;2023-03-04T10:00:03;6.15;;;2.90;;
78854;SDS011;68206;59.956;30.234;2023-03-04T10:02:46;4.30;;;2.67;;
78854;SDS011;68206;59.956;30.234;2023-03-04T10:05:28;8.30;;;3.40;;
78854;SDS011;68206;59.956;30.234;2023-03-04T10:08:04;6.72;;;3.33;;
78854;SDS011;68206;59.956;30.234;2023-03-04T10:10:43;4.10;;;2.33;;
78854;SDS011;68206;59.956;30.234;2023-03-04T10:13:13;5.53;;;2.55;;
78854;SDS011;68206;59.956;30.234;2023-03-04T10:15:47;5.57;;;2.40;;
78854;SDS011;68206;59.956;30.234;2023-03-04T10:18:20;5.80;;;2.60;;
78854;SDS011;68206;59.956;30.234;2023-03-04T10:20:53;6.88;;;2.60;;
78854;SDS011;68206;59.956;30.234;2023-03-04T10:23:26;4.07;;;2.60;;
78854;SDS011;68206;59.956;30.234;2023-03-04T10:25:57;8.25;;;2.92;;
78854;SDS011;68206;59.956;30.234;2023-03-04T10:28:29;5.57;;;2.88;;
78854;SDS011;68206;59.956;30.234;2023-03-04T10:30:59;8.15;;;3.25;;
78854;SDS011;68206;59.956;30.234;2023-03-04T10:33:34;6.45;;;3.40;;
78854;SDS011;68206;59.956;30.234;2023-03-04T10:36:05;4.97;;;2.53;;
78854;SDS011;68206;59.956;30.234;2023-03-04T10:38:52;8.80;;;3.22;;
78854;SDS011;68206;59.956;30.234;2023-03-04T10:41:23;4.95;;;3.20;;
78854;SDS011;68206;59.956;30.234;2023-03-04T10:43:59;9.80;;;3.15;;
78854;SDS011;68206;59.956;30.234;2023-03-04T10:46:31;5.70;;;3.17;;
78854;SDS011;68206;59.956;30.234;2023-03-04T10:49:01;7.72;;;2.85;;
78854;SDS011;68206;59.956;30.234;2023-03-04T10:51:31;6.15;;;2.75;;
78854;SDS011;68206;59.956;30.234;2023-03-04T10:54:02;5.57;;;3.17;;
78854;SDS011;68206;59.956;30.234;2023-03-04T10:56:36;4.25;;;2.45;;
78854;SDS011;68206;59.956;30.234;2023-03-04T10:59:28;4.68;;;2.63;;
78854;SDS011;68206;59.956;30.234;2023-03-04T11:01:59;6.32;;;2.53;;
78854;SDS011;68206;59.956;30.234;2023-03-04T11:04:33;4.28;;;2.30;;
78854;SDS011;68206;59.956;30.234;2023-03-04T11:07:04;3.70;;;2.40;;
78854;SDS011;68206;59.956;30.234;2023-03-04T11:09:36;6.22;;;2.55;;
78854;SDS011;68206;59.956;30.234;2023-03-04T11:12:08;5.55;;;2.30;;
78854;SDS011;68206;59.956;30.234;2023-03-04T11:14:39;5.25;;;2.70;;
78854;SDS011;68206;59.956;30.234;2023-03-04T11:17:17;7.50;;;2.50;;
78854;SDS011;68206;59.956;30.234;2023-03-04T11:19:51;3.38;;;1.98;;
78854;SDS011;68206;59.956;30.234;2023-03-04T11:22:23;5.22;;;2.30;;
78854;SDS011;68206;59.956;30.234;2023-03-04T11:24:58;4.18;;;1.95;;
78854;SDS011;68206;59.956;30.234;2023-03-04T11:27:35;2.65;;;1.85;;
78854;SDS011;68206;59.956;30.234;2023-03-04T11:33:05;4.30;;;2.60;;
78854;SDS011;68206;59.956;30.234;2023-03-04T11:35:43;3.40;;;2.15;;
78854;SDS011;68206;59.956;30.234;2023-03-04T11:38:20;7.50;;;2.78;;
78854;SDS011;68206;59.956;30.234;2023-03-04T11:40:53;6.65;;;2.65;;
78854;SDS011;68206;59.956;30.234;2023-03-04T11:43:26;7.90;;;3.10;;
78854;SDS011;68206;59.956;30.234;2023-03-04T11:46:23;6.15;;;2.20;;
78854;SDS011;68206;59.956;30.234;2023-03-04T11:49:10;5.63;;;2.13;;
78854;SDS011;68206;59.956;30.234;2023-03-04T11:51:54;3.10;;;2.08;;
78854;SDS011;68206;59.956;30.234;2023-03-04T11:54:31;7.93;;;2.30;;
78854;SDS011;68206;59.956;30.234;2023-03-04T11:57:09;6.07;;;1.98;;
78854;SDS011;68206;59.956;30.234;2023-03-04T11:59:55;11.00;;;2.00;;
78854;SDS011;68206;59.956;30.234;2023-03-04T12:02:40;3.08;;;1.58;;
78854;SDS011;68206;59.956;30.234;2023-03-04T12:05:18;3.53;;;1.95;;
78854;SDS011;68206;59.956;30.234;2023-03-04T12:11:00;4.43;;;1.40;;
78854;SDS011;68206;59.956;30.234;2023-03-04T12:16:51;5.72;;;2.33;;
78854;SDS011;68206;59.956;30.234;2023-03-04T12:19:35;6.05;;;2.28;;
78854;SDS011;68206;59.956;30.234;2023-03-04T12:22:29;3.50;;;1.98;;
78854;SDS011;68206;59.956;30.234;2023-03-04T12:28:00;5.38;;;1.90;;
78854;SDS011;68206;59.956;30.234;2023-03-04T12:30:40;4.32;;;2.22;;
78854;SDS011;68206;59.956;30.234;2023-03-04T12:33:24;4.38;;;2.45;;
78854;SDS011;68206;59.956;30.234;2023-03-04T12:36:01;4.28;;;2.13;;
78854;SDS011;68206;59.956;30.234;2023-03-04T12:38:42;4.65;;;2.00;;
78854;SDS011;68206;59.956;30.234;2023-03-04T12:41:27;8.43;;;2.25;;
78854;SDS011;68206;59.956;30.234;2023-03-04T12:44:05;5.20;;;2.75;;
78854;SDS011;68206;59.956;30.234;2023-03-04T12:47:01;4.70;;;2.30;;
78854;SDS011;68206;59.956;30.234;2023-03-04T12:49:58;4.63;;;2.80;;
78854;SDS011;68206;59.956;30.234;2023-03-04T12:52:38;8.18;;;2.80;;
78854;SDS011;68206;59.956;30.234;2023-03-04T12:55:14;3.72;;;2.20;;
78854;SDS011;68206;59.956;30.234;2023-03-04T12:57:47;3.75;;;1.88;;
78854;SDS011;68206;59.956;30.234;2023-03-04T13:00:20;4.03;;;2.60;;
78854;SDS011;68206;59.956;30.234;2023-03-04T13:03:03;5.47;;;2.55;;
78854;SDS011;68206;59.956;30.234;2023-03-04T13:05:42;4.07;;;2.20;;
78854;SDS011;68206;59.956;30.234;2023-03-04T13:08:23;7.30;;;2.75;;
78854;SDS011;68206;59.956;30.234;2023-03-04T13:11:00;4.85;;;1.95;;
78854;SDS011;68206;59.956;30.234;2023-03-04T13:13:35;5.30;;;1.73;;
78854;SDS011;68206;59.956;30.234;2023-03-04T13:16:23;3.72;;;2.15;;
78854;SDS011;68206;59.956;30.234;2023-03-04T13:21:27;4.55;;;1.40;;
78854;SDS011;68206;59.956;30.234;2023-03-04T13:23:59;5.38;;;2.10;;
78854;SDS011;68206;59.956;30.234;2023-03-04T13:26:49;4.80;;;1.75;;
78854;SDS011;68206;59.956;30.234;2023-03-04T13:29:32;2.78;;;1.65;;
78854;SDS011;68206;59.956;30.234;2023-03-04T13:32:03;3.75;;;1.48;;
78854;SDS011;68206;59.956;30.234;2023-03-04T13:34:47;4.40;;;1.58;;
78854;SDS011;68206;59.956;30.234;2023-03-04T13:37:24;3.20;;;1.58;;
78854;SDS011;68206;59.956;30.234;2023-03-04T13:45:53;3.63;;;1.60;;
78854;SDS011;68206;59.956;30.234;2023-03-04T13:48:23;1.88;;;1.30;;
78854;SDS011;68206;59.956;30.234;2023-03-04T13:50:56;3.47;;;1.92;;
78854;SDS011;68206;59.956;30.234;2023-03-04T13:53:29;5.95;;;1.65;;
78854;SDS011;68206;59.956;30.234;2023-03-04T13:56:17;5.88;;;1.50;;
78854;SDS011;68206;59.956;30.234;2023-03-04T13:58:51;4.30;;;1.67;;
78854;SDS011;68206;59.956;30.234;2023-03-04T14:01:30;1.20;;;1.10;;
78854;SDS011;68206;59.956;30.234;2023-03-04T14:04:01;3.75;;;1.80;;
78854;SDS011;68206;59.956;30.234;2023-03-04T14:06:40;5.05;;;1.40;;
78854;SDS011;68206;59.956;30.234;2023-03-04T14:09:11;4.53;;;1.75;;
78854;SDS011;68206;59.956;30.234;2023-03-04T14:11:41;3.25;;;1.83;;
78854;SDS011;68206;59.956;30.234;2023-03-04T14:14:12;9.25;;;2.10;;
78854;SDS011;68206;59.956;30.234;2023-03-04T14:16:46;3.97;;;2.20;;
78854;SDS011;68206;59.956;30.234;2023-03-04T14:19:20;9.18;;;2.17;;
78854;SDS011;68206;59.956;30.234;2023-03-04T14:21:54;6.93;;;2.88;;
78854;SDS011;68206;59.956;30.234;2023-03-04T14:24:24;5.55;;;2.63;;
78854;SDS011;68206;59.956;30.234;2023-03-04T14:27:02;4.47;;;2.15;;
78854;SDS011;68206;59.956;30.234;2023-03-04T14:29:37;6.93;;;2.40;;
78854;SDS011;68206;59.956;30.234;2023-03-04T14:32:09;2.63;;;1.70;;
78854;SDS011;68206;59.956;30.234;2023-03-04T14:34:39;3.17;;;1.90;;
78854;SDS011;68206;59.956;30.234;2023-03-04T14:37:18;3.83;;;1.95;;
78854;SDS011;68206;59.956;30.234;2023-03-04T14:39:51;3.83;;;2.10;;
78854;SDS011;68206;59.956;30.234;2023-03-04T14:42:23;5.03;;;2.35;;
78854;SDS011;68206;59.956;30.234;2023-03-04T14:44:59;2.58;;;1.67;;
78854;SDS011;68206;59.956;30.234;2023-03-04T14:47:31;3.30;;;1.73;;
78854;SDS011;68206;59.956;30.234;2023-03-04T14:50:04;6.75;;;4.22;;
78854;SDS011;68206;59.956;30.234;2023-03-04T14:52:36;2.17;;;1.48;;
78854;SDS011;68206;59.956;30.234;2023-03-04T14:55:19;6.43;;;2.05;;
78854;SDS011;68206;59.956;30.234;2023-03-04T14:57:50;5.32;;;1.80;;
78854;SDS011;68206;59.956;30.234;2023-03-04T15:00:26;3.38;;;1.70;;
78854;SDS011;68206;59.956;30.234;2023-03-04T15:02:59;2.17;;;1.30;;
78854;SDS011;68206;59.956;30.234;2023-03-04T15:05:30;5.00;;;1.63;;
78854;SDS011;68206;59.956;30.234;2023-03-04T15:08:00;3.13;;;1.70;;
78854;SDS011;68206;59.956;30.234;2023-03-04T15:10:32;6.07;;;1.50;;
78854;SDS011;68206;59.956;30.234;2023-03-04T15:13:04;2.05;;;1.40;;
78854;SDS011;68206;59.956;30.234;2023-03-04T15:15:38;4.10;;;2.05;;
78854;SDS011;68206;59.956;30.234;2023-03-04T15:18:16;1.85;;;1.50;;
78854;SDS011;68206;59.956;30.234;2023-03-04T15:20:52;4.78;;;2.13;;
78854;SDS011;68206;59.956;30.234;2023-03-04T15:23:22;3.97;;;2.10;;
78854;SDS011;68206;59.956;30.234;2023-03-04T15:25:51;4.95;;;1.80;;
78854;SDS011;68206;59.956;30.234;2023-03-04T15:28:22;4.38;;;2.58;;